Time;durP1;ratioP1;P1;durP2;ratioP2;P2;SDS_P1;SDS_P2;PMS_P1;PMS_P2;Temp;Humidity;BMP_temperature;BMP_pressure;BME280_temperature;BME280_humidity;BME280_pressure;Samples;Min_cycle;Max_cycle;Signal;HPM_P1;HPM_P2
2021/12/14 00:00:45;;;;;;;34.47;32.77;;;;;;;;;;5095632;28;20190;-77
2021/12/14 00:03:14;;;;;;;36.17;34.27;;;;;;;;;;5095131;28;20225;-77
2021/12/14 00:05:41;;;;;;;34.73;32.93;;;;;;;;;;5095499;28;20638;-76
2021/12/14 00:08:11;;;;;;;32.90;31.20;;;;;;;;;;5095170;28;20277;-77
2021/12/14 00:13:41;;;;;;;32.43;30.73;;;;;;;;;;5088502;28;20281;-77
2021/12/14 00:16:08;;;;;;;30.07;28.67;;;;;;;;;;5095545;28;20293;-77
2021/12/14 00:18:35;;;;;;;32.80;31.20;;;;;;;;;;5094929;28;20211;-77
2021/12/14 00:21:05;;;;;;;31.07;29.57;;;;;;;;;;5094883;28;20194;-77
2021/12/14 00:26:17;;;;;;;31.90;30.40;;;;;;;;;;5095519;28;20193;-76
2021/12/14 00:28:47;;;;;;;30.30;28.80;;;;;;;;;;5095034;28;20646;-77
2021/12/14 00:31:16;;;;;;;29.53;28.03;;;;;;;;;;5094650;28;20229;-77
2021/12/14 00:33:44;;;;;;;30.30;28.90;;;;;;;;;;5094978;28;20194;-77
2021/12/14 00:36:13;;;;;;;33.77;32.07;;;;;;;;;;5094908;28;20191;-77
2021/12/14 00:38:41;;;;;;;35.23;33.03;;;;;;;;;;5094535;28;20223;-77
2021/12/14 00:41:09;;;;;;;31.60;30.03;;;;;;;;;;5094486;28;20735;-77
2021/12/14 00:43:36;;;;;;;30.27;28.60;;;;;;;;;;5094910;28;20237;-77
2021/12/14 00:46:04;;;;;;;36.33;34.43;;;;;;;;;;5094446;28;20652;-76
2021/12/14 00:48:31;;;;;;;33.77;32.07;;;;;;;;;;5094597;28;20194;-77
2021/12/14 00:50:59;;;;;;;36.27;34.47;;;;;;;;;;5094346;28;20194;-76
2021/12/14 00:53:26;;;;;;;32.77;31.17;;;;;;;;;;5094250;28;20728;-77
2021/12/14 00:55:54;;;;;;;31.83;30.23;;;;;;;;;;5094399;28;20725;-77
2021/12/14 00:58:21;;;;;;;31.20;29.60;;;;;;;;;;5094146;28;20233;-77
2021/12/14 01:00:50;;;;;;;29.73;28.23;;;;;;;;;;5094180;28;20735;-76
2021/12/14 01:03:18;;;;;;;32.33;30.67;;;;;;;;;;5094304;28;20230;-77
2021/12/14 01:05:46;;;;;;;34.33;32.53;;;;;;;;;;5093646;28;20193;-77
2021/12/14 01:08:14;;;;;;;33.80;32.07;;;;;;;;;;5094312;28;20233;-76
2021/12/14 01:10:47;;;;;;;30.80;29.30;;;;;;;;;;5093916;28;20694;-76
2021/12/14 01:13:14;;;;;;;31.27;29.67;;;;;;;;;;5094251;28;20186;-77
2021/12/14 01:15:52;;;;;;;32.50;30.80;;;;;;;;;;5093794;28;20251;-76
2021/12/14 01:18:34;;;;;;;32.03;30.43;;;;;;;;;;5094588;28;20545;-76
2021/12/14 01:21:09;;;;;;;33.03;30.87;;;;;;;;;;5093811;28;20186;-76
2021/12/14 01:23:37;;;;;;;32.37;30.77;;;;;;;;;;5093927;28;20217;-77
2021/12/14 01:26:08;;;;;;;31.93;29.60;;;;;;;;;;5093643;28;20216;-77
2021/12/14 01:28:35;;;;;;;30.27;28.67;;;;;;;;;;5093627;28;20611;-77
2021/12/14 01:31:09;;;;;;;29.07;27.73;;;;;;;;;;5093469;28;20226;-77
2021/12/14 01:33:39;;;;;;;32.50;30.70;;;;;;;;;;5093525;28;20283;-77
2021/12/14 01:36:12;;;;;;;36.07;33.97;;;;;;;;;;5093696;28;20197;-77
2021/12/14 01:38:47;;;;;;;35.00;32.90;;;;;;;;;;5093790;28;20246;-77
2021/12/14 01:41:14;;;;;;;35.23;33.27;;;;;;;;;;5093693;28;20238;-76
2021/12/14 01:43:44;;;;;;;35.23;33.23;;;;;;;;;;5093166;28;20316;-77
2021/12/14 01:46:14;;;;;;;34.40;32.50;;;;;;;;;;5093527;28;20221;-77
2021/12/14 01:48:42;;;;;;;34.97;33.07;;;;;;;;;;5093545;28;20194;-77
2021/12/14 01:51:10;;;;;;;33.30;31.40;;;;;;;;;;5093345;28;20255;-77
2021/12/14 01:53:38;;;;;;;36.70;34.60;;;;;;;;;;5093122;28;20236;-76
2021/12/14 01:56:08;;;;;;;33.60;31.70;;;;;;;;;;5093138;28;20240;-77
2021/12/14 01:58:37;;;;;;;32.77;30.90;;;;;;;;;;5093047;28;20281;-77
2021/12/14 02:01:06;;;;;;;34.70;32.80;;;;;;;;;;5092962;28;20285;-76
2021/12/14 02:03:46;;;;;;;31.27;29.57;;;;;;;;;;5093099;28;20305;-77
2021/12/14 02:06:16;;;;;;;31.20;29.60;;;;;;;;;;5092912;28;20218;-76
2021/12/14 02:08:42;;;;;;;30.20;28.60;;;;;;;;;;5092831;28;20263;-76
2021/12/14 02:11:10;;;;;;;29.10;27.60;;;;;;;;;;5093929;28;20284;-77
2021/12/14 02:13:39;;;;;;;29.83;28.33;;;;;;;;;;5092745;28;20233;-77
2021/12/14 02:16:06;;;;;;;31.27;29.67;;;;;;;;;;5093065;28;20277;-77
2021/12/14 02:18:33;;;;;;;32.43;30.73;;;;;;;;;;5092940;28;20200;-77
2021/12/14 02:21:02;;;;;;;23.80;22.70;;;;;;;;;;5092725;28;20703;-76
2021/12/14 02:23:30;;;;;;;27.13;25.63;;;;;;;;;;5092735;28;20320;-77
2021/12/14 02:25:59;;;;;;;32.80;31.00;;;;;;;;;;5092828;28;20225;-76
2021/12/14 02:28:26;;;;;;;27.93;26.43;;;;;;;;;;5092810;28;20272;-76
2021/12/14 02:30:55;;;;;;;47.40;43.87;;;;;;;;;;5092382;28;20778;-77
2021/12/14 02:33:23;;;;;;;28.20;26.80;;;;;;;;;;5092493;28;20660;-77
2021/12/14 02:35:51;;;;;;;26.20;24.90;;;;;;;;;;5092400;28;20228;-77
2021/12/14 02:38:19;;;;;;;28.00;26.50;;;;;;;;;;5092351;28;20236;-76
2021/12/14 02:40:57;;;;;;;25.33;24.03;;;;;;;;;;5092672;28;20255;-76
2021/12/14 02:43:27;;;;;;;22.97;21.87;;;;;;;;;;5092275;28;20213;-77
2021/12/14 02:45:54;;;;;;;22.70;21.50;;;;;;;;;;5092612;28;20225;-77
2021/12/14 02:48:23;;;;;;;24.53;23.13;;;;;;;;;;5092271;28;20569;-76
2021/12/14 02:50:50;;;;;;;25.73;24.23;;;;;;;;;;5092513;28;20686;-76
2021/12/14 02:53:17;;;;;;;26.40;24.80;;;;;;;;;;5092533;28;20653;-77
2021/12/14 02:55:45;;;;;;;27.07;25.47;;;;;;;;;;5092157;28;20288;-76
2021/12/14 02:58:12;;;;;;;28.17;26.47;;;;;;;;;;5092477;28;20665;-77
2021/12/14 03:00:42;;;;;;;24.10;22.70;;;;;;;;;;5093258;28;20202;-77
2021/12/14 03:03:10;;;;;;;26.43;24.93;;;;;;;;;;5092391;28;20297;-76
2021/12/14 03:05:38;;;;;;;23.87;22.47;;;;;;;;;;5092023;28;20194;-77
2021/12/14 03:08:06;;;;;;;24.30;22.87;;;;;;;;;;5092074;28;20225;-76
2021/12/14 03:10:49;;;;;;;24.27;22.87;;;;;;;;;;5092293;28;20198;-76
2021/12/14 03:13:18;;;;;;;25.77;24.27;;;;;;;;;;5092655;28;20198;-77
2021/12/14 03:15:48;;;;;;;24.53;23.13;;;;;;;;;;5092261;28;20276;-77
2021/12/14 03:18:18;;;;;;;23.00;21.70;;;;;;;;;;5092248;28;20281;-77
2021/12/14 03:20:46;;;;;;;26.57;24.97;;;;;;;;;;5092175;28;20197;-77
2021/12/14 03:23:14;;;;;;;28.57;26.83;;;;;;;;;;5092106;28;20233;-77
2021/12/14 03:25:43;;;;;;;26.43;24.83;;;;;;;;;;5092167;28;20225;-77
2021/12/14 03:28:10;;;;;;;27.17;25.57;;;;;;;;;;5093951;28;20225;-77
2021/12/14 03:30:41;;;;;;;26.57;24.97;;;;;;;;;;5095779;28;20268;-77
2021/12/14 03:33:13;;;;;;;25.93;24.37;;;;;;;;;;5095891;28;20277;-76
2021/12/14 03:35:41;;;;;;;25.33;23.83;;;;;;;;;;5096181;28;20202;-76
2021/12/14 03:38:11;;;;;;;25.37;23.87;;;;;;;;;;5096024;28;20226;-77
2021/12/14 03:40:38;;;;;;;23.47;22.07;;;;;;;;;;5095709;28;20255;-77
2021/12/14 03:43:06;;;;;;;25.33;23.73;;;;;;;;;;5095911;28;20194;-77
2021/12/14 03:45:33;;;;;;;23.37;21.83;;;;;;;;;;5095657;28;20289;-76
2021/12/14 03:48:03;;;;;;;24.80;23.30;;;;;;;;;;5095563;28;20234;-77
2021/12/14 03:50:31;;;;;;;27.80;26.07;;;;;;;;;;5095727;28;20754;-76
2021/12/14 03:52:58;;;;;;;26.57;25.07;;;;;;;;;;5095441;28;20676;-76
2021/12/14 03:55:26;;;;;;;26.93;25.47;;;;;;;;;;5095682;28;20276;-77
2021/12/14 03:57:53;;;;;;;26.40;24.70;;;;;;;;;;5096011;28;20277;-76
2021/12/14 04:00:23;;;;;;;23.90;22.50;;;;;;;;;;5095291;28;20766;-76
2021/12/14 04:02:50;;;;;;;25.90;24.43;;;;;;;;;;5095697;28;20255;-76
2021/12/14 04:05:18;;;;;;;29.33;27.63;;;;;;;;;;5095471;28;20312;-75
2021/12/14 04:07:46;;;;;;;27.57;26.07;;;;;;;;;;5095488;28;20276;-76
2021/12/14 04:10:14;;;;;;;27.73;26.13;;;;;;;;;;5095174;28;20286;-76
2021/12/14 04:12:40;;;;;;;24.20;22.90;;;;;;;;;;5095137;28;20207;-76
2021/12/14 04:15:07;;;;;;;26.07;24.57;;;;;;;;;;5095074;28;20280;-77
2021/12/14 04:17:34;;;;;;;27.27;25.70;;;;;;;;;;5095291;28;20276;-75
2021/12/14 04:20:01;;;;;;;28.63;26.93;;;;;;;;;;5095285;28;20249;-76
2021/12/14 04:22:33;;;;;;;28.60;26.90;;;;;;;;;;5095516;28;20289;-76
2021/12/14 04:25:02;;;;;;;28.40;26.80;;;;;;;;;;5095155;28;20217;-76
2021/12/14 04:27:31;;;;;;;28.33;26.73;;;;;;;;;;5094812;28;20229;-76
2021/12/14 04:30:00;;;;;;;27.57;26.07;;;;;;;;;;5094819;28;20251;-77
2021/12/14 04:32:27;;;;;;;27.00;25.50;;;;;;;;;;5094809;28;20243;-77
2021/12/14 04:34:55;;;;;;;29.43;27.20;;;;;;;;;;5095743;28;20312;-77
2021/12/14 04:37:22;;;;;;;30.30;28.60;;;;;;;;;;5094925;28;20271;-76
2021/12/14 04:39:56;;;;;;;29.10;27.50;;;;;;;;;;5093423;28;20664;-76
2021/12/14 04:53:46;;;;;;;24.17;23.07;;;;;;;;;;5094853;28;20185;-77
2021/12/14 04:56:17;;;;;;;23.17;22.17;;;;;;;;;;5084084;28;20248;-76
2021/12/14 04:58:46;;;;;;;23.10;22.10;;;;;;;;;;5094592;28;20217;-76
2021/12/14 05:01:15;;;;;;;24.37;22.70;;;;;;;;;;5094151;28;20194;-76
2021/12/14 05:03:44;;;;;;;24.40;23.30;;;;;;;;;;5094019;28;20659;-76
2021/12/14 05:06:15;;;;;;;25.27;24.07;;;;;;;;;;5094088;28;20205;-76
2021/12/14 05:11:29;;;;;;;27.73;26.43;;;;;;;;;;5094833;28;20189;-76
2021/12/14 05:14:05;;;;;;;27.03;25.73;;;;;;;;;;5094269;28;20274;-77
2021/12/14 05:16:32;;;;;;;26.93;25.63;;;;;;;;;;5094479;28;20227;-77
2021/12/14 05:19:01;;;;;;;26.30;25.00;;;;;;;;;;5094122;28;20194;-77
2021/12/14 05:21:29;;;;;;;24.03;22.93;;;;;;;;;;5094905;28;20267;-77
2021/12/14 05:23:56;;;;;;;25.27;24.07;;;;;;;;;;5093934;28;20383;-77
2021/12/14 05:26:23;;;;;;;27.03;25.73;;;;;;;;;;5093894;28;20629;-77
2021/12/14 05:28:51;;;;;;;28.07;26.67;;;;;;;;;;5093592;28;20243;-77
2021/12/14 05:31:18;;;;;;;27.43;26.03;;;;;;;;;;5093479;28;20263;-77
2021/12/14 05:33:45;;;;;;;27.93;26.53;;;;;;;;;;5093833;28;20276;-77
2021/12/14 05:36:15;;;;;;;31.73;30.13;;;;;;;;;;5093856;28;20197;-77
2021/12/14 05:38:51;;;;;;;28.60;27.20;;;;;;;;;;5093776;28;20208;-77
2021/12/14 05:44:06;;;;;;;27.30;26.00;;;;;;;;;;5093163;28;20645;-77
2021/12/14 05:46:33;;;;;;;24.57;23.47;;;;;;;;;;5093661;28;20222;-77
2021/12/14 05:49:01;;;;;;;25.77;24.57;;;;;;;;;;5093531;28;20194;-77
2021/12/14 05:51:28;;;;;;;25.47;24.27;;;;;;;;;;5092950;28;20243;-78
2021/12/14 05:53:56;;;;;;;25.30;24.10;;;;;;;;;;5093548;28;20248;-77
2021/12/14 05:56:24;;;;;;;23.97;22.87;;;;;;;;;;5093452;28;20549;-77
2021/12/14 05:58:52;;;;;;;25.43;24.23;;;;;;;;;;5093431;28;20194;-77
2021/12/14 06:01:22;;;;;;;29.23;27.83;;;;;;;;;;5092978;28;20194;-77
2021/12/14 06:03:50;;;;;;;25.63;24.33;;;;;;;;;;5093115;28;20655;-77
2021/12/14 06:06:19;;;;;;;28.93;27.33;;;;;;;;;;5092899;28;20285;-77
2021/12/14 06:08:45;;;;;;;27.80;26.40;;;;;;;;;;5092897;28;20229;-77
2021/12/14 06:11:19;;;;;;;23.20;22.00;;;;;;;;;;5093273;28;20281;-78
2021/12/14 06:13:46;;;;;;;28.67;27.17;;;;;;;;;;5093181;28;20220;-77
2021/12/14 06:16:23;;;;;;;23.40;22.20;;;;;;;;;;5092813;28;20225;-77
2021/12/14 06:18:49;;;;;;;25.50;24.20;;;;;;;;;;5092744;28;20276;-77
2021/12/14 06:21:18;;;;;;;26.37;25.00;;;;;;;;;;5093038;28;20728;-77
2021/12/14 06:23:45;;;;;;;25.43;24.13;;;;;;;;;;5092935;28;20190;-77
2021/12/14 06:26:13;;;;;;;25.70;24.40;;;;;;;;;;5092585;28;20707;-77
2021/12/14 06:28:40;;;;;;;23.47;22.27;;;;;;;;;;5092836;28;20273;-77
2021/12/14 06:31:06;;;;;;;22.60;21.43;;;;;;;;;;5092375;28;20229;-77
2021/12/14 06:33:35;;;;;;;23.40;22.20;;;;;;;;;;5092849;28;20223;-77
2021/12/14 06:36:02;;;;;;;23.27;22.07;;;;;;;;;;5092410;28;20671;-77
2021/12/14 06:38:29;;;;;;;25.43;24.13;;;;;;;;;;5092417;28;20733;-77
2021/12/14 06:41:01;;;;;;;25.50;24.20;;;;;;;;;;5092682;28;20635;-77
2021/12/14 06:43:29;;;;;;;24.30;23.07;;;;;;;;;;5092422;28;20190;-77
2021/12/14 06:45:57;;;;;;;23.63;22.43;;;;;;;;;;5092355;28;20225;-77
2021/12/14 06:48:26;;;;;;;21.13;20.13;;;;;;;;;;5092268;28;20240;-77
2021/12/14 06:50:55;;;;;;;23.10;22.00;;;;;;;;;;5092595;28;20276;-77
2021/12/14 06:53:23;;;;;;;23.13;21.83;;;;;;;;;;5092501;28;20284;-77
2021/12/14 06:55:50;;;;;;;20.87;19.87;;;;;;;;;;5092196;28;20202;-77
2021/12/14 06:58:18;;;;;;;23.77;22.57;;;;;;;;;;5092112;28;20587;-77
2021/12/14 07:00:47;;;;;;;22.03;20.93;;;;;;;;;;5092154;28;20255;-77
2021/12/14 07:03:14;;;;;;;24.53;23.23;;;;;;;;;;5091651;28;20216;-77
2021/12/14 07:05:42;;;;;;;24.43;23.13;;;;;;;;;;5092347;28;20225;-77
2021/12/14 07:08:13;;;;;;;24.70;23.40;;;;;;;;;;5092335;28;20233;-77
2021/12/14 07:10:40;;;;;;;25.00;23.60;;;;;;;;;;5092626;28;20232;-77
2021/12/14 07:13:15;;;;;;;26.83;25.43;;;;;;;;;;5092050;28;20229;-77
2021/12/14 07:15:42;;;;;;;26.93;25.53;;;;;;;;;;5092010;28;20581;-77
2021/12/14 07:18:09;;;;;;;25.07;23.77;;;;;;;;;;5092050;28;20352;-77
2021/12/14 07:20:39;;;;;;;24.70;23.40;;;;;;;;;;5091915;28;20193;-77
2021/12/14 07:23:17;;;;;;;27.70;26.20;;;;;;;;;;5092194;28;20277;-77
2021/12/14 07:25:49;;;;;;;28.63;27.13;;;;;;;;;;5092060;28;20790;-77
2021/12/14 07:28:17;;;;;;;25.73;24.33;;;;;;;;;;5091939;28;20225;-77
2021/12/14 07:30:45;;;;;;;22.90;21.70;;;;;;;;;;5091752;28;20233;-77
2021/12/14 07:33:13;;;;;;;22.70;21.50;;;;;;;;;;5092155;28;20259;-77
2021/12/14 07:35:47;;;;;;;24.47;23.17;;;;;;;;;;5092036;28;20197;-77
2021/12/14 07:38:26;;;;;;;22.83;21.67;;;;;;;;;;5091803;28;20197;-77
2021/12/14 07:40:56;;;;;;;24.07;22.87;;;;;;;;;;5092005;28;20280;-77
2021/12/14 07:43:25;;;;;;;23.93;22.73;;;;;;;;;;5092103;28;20186;-77
2021/12/14 07:45:52;;;;;;;25.13;23.93;;;;;;;;;;5091729;28;20322;-77
2021/12/14 07:48:20;;;;;;;24.97;23.67;;;;;;;;;;5091748;28;20331;-77
2021/12/14 07:50:49;;;;;;;25.73;24.33;;;;;;;;;;5091706;28;20197;-77
2021/12/14 07:53:29;;;;;;;23.20;22.00;;;;;;;;;;5092733;28;20233;-77
2021/12/14 07:55:58;;;;;;;26.07;24.67;;;;;;;;;;5091986;28;20190;-77
2021/12/14 07:58:30;;;;;;;25.63;24.23;;;;;;;;;;5091564;28;20647;-77
2021/12/14 08:00:57;;;;;;;24.87;23.57;;;;;;;;;;5091928;28;20555;-77
2021/12/14 08:03:25;;;;;;;23.83;22.53;;;;;;;;;;5091503;28;20716;-76
2021/12/14 08:05:54;;;;;;;24.07;22.77;;;;;;;;;;5091513;28;20232;-76
2021/12/14 08:08:31;;;;;;;24.33;23.03;;;;;;;;;;5091478;28;20208;-76
2021/12/14 08:11:27;;;;;;;24.77;23.47;;;;;;;;;;5091567;28;20189;-76
2021/12/14 08:13:57;;;;;;;23.23;22.03;;;;;;;;;;5092659;28;20621;-75
2021/12/14 08:16:24;;;;;;;21.60;20.50;;;;;;;;;;5095358;28;20251;-76
2021/12/14 08:18:51;;;;;;;26.00;24.53;;;;;;;;;;5095343;28;20281;-76
2021/12/14 08:21:20;;;;;;;24.10;22.80;;;;;;;;;;5094998;28;20198;-77
2021/12/14 08:23:51;;;;;;;24.80;23.50;;;;;;;;;;5095245;28;20193;-76
2021/12/14 08:26:21;;;;;;;25.47;24.07;;;;;;;;;;5094903;28;20214;-77
2021/12/14 08:28:48;;;;;;;25.03;23.67;;;;;;;;;;5095297;28;20186;-77
2021/12/14 08:31:15;;;;;;;24.40;23.10;;;;;;;;;;5095878;28;20221;-77
2021/12/14 08:33:42;;;;;;;24.30;23.00;;;;;;;;;;5095573;28;20255;-77
2021/12/14 08:36:11;;;;;;;25.33;23.93;;;;;;;;;;5096939;28;20225;-76
2021/12/14 08:38:37;;;;;;;26.37;24.97;;;;;;;;;;5097748;28;20649;-76
2021/12/14 08:41:13;;;;;;;26.23;24.53;;;;;;;;;;5098311;28;20246;-77
2021/12/14 08:43:47;;;;;;;27.80;26.20;;;;;;;;;;5097569;28;20205;-76
2021/12/14 08:46:16;;;;;;;32.80;30.80;;;;;;;;;;5098069;28;20213;-76
2021/12/14 08:48:45;;;;;;;32.93;30.93;;;;;;;;;;5097450;28;20197;-78
2021/12/14 08:51:14;;;;;;;33.00;30.90;;;;;;;;;;5095208;28;20227;-76
2021/12/14 08:53:43;;;;;;;33.57;31.50;;;;;;;;;;5095649;28;20190;-75
2021/12/14 08:56:11;;;;;;;30.43;28.53;;;;;;;;;;5094948;28;20277;-75
2021/12/14 08:58:38;;;;;;;29.93;28.13;;;;;;;;;;5094737;28;20671;-77
2021/12/14 09:01:11;;;;;;;25.40;23.90;;;;;;;;;;5094617;28;20240;-76
2021/12/14 09:03:43;;;;;;;23.00;21.70;;;;;;;;;;5094479;28;20182;-76
2021/12/14 09:06:12;;;;;;;26.50;24.97;;;;;;;;;;5094204;28;20728;-76
2021/12/14 09:08:39;;;;;;;25.67;24.27;;;;;;;;;;5094824;28;20271;-76
2021/12/14 09:11:06;;;;;;;24.47;23.17;;;;;;;;;;5095002;28;20225;-74
2021/12/14 09:13:33;;;;;;;25.20;23.80;;;;;;;;;;5094802;28;20604;-78
2021/12/14 09:16:02;;;;;;;28.03;26.53;;;;;;;;;;5094417;28;20340;-79
2021/12/14 09:18:32;;;;;;;25.00;23.70;;;;;;;;;;5095454;28;20194;-80
2021/12/14 09:21:01;;;;;;;25.47;24.07;;;;;;;;;;5095879;28;20644;-74
2021/12/14 09:23:29;;;;;;;25.67;24.27;;;;;;;;;;5096049;28;20586;-78
2021/12/14 09:25:56;;;;;;;24.63;23.33;;;;;;;;;;5095737;28;20707;-74
2021/12/14 09:28:23;;;;;;;25.97;24.43;;;;;;;;;;5095434;28;20190;-73
2021/12/14 09:30:51;;;;;;;27.90;26.40;;;;;;;;;;5094544;28;20294;-73
2021/12/14 09:33:18;;;;;;;27.03;25.33;;;;;;;;;;5094369;28;20209;-73
2021/12/14 09:35:48;;;;;;;22.47;21.27;;;;;;;;;;5093670;28;20232;-76
2021/12/14 09:38:18;;;;;;;23.97;22.67;;;;;;;;;;5094008;28;20627;-72
2021/12/14 09:40:49;;;;;;;25.37;23.97;;;;;;;;;;5093812;28;20204;-75
2021/12/14 09:43:16;;;;;;;23.93;22.63;;;;;;;;;;5094262;28;20197;-73
2021/12/14 09:45:45;;;;;;;23.40;22.20;;;;;;;;;;5094019;28;21013;-79
2021/12/14 09:48:12;;;;;;;22.53;21.33;;;;;;;;;;5094262;28;20243;-73
2021/12/14 09:50:40;;;;;;;22.97;21.77;;;;;;;;;;5094405;28;20190;-72
2021/12/14 09:53:13;;;;;;;22.67;21.47;;;;;;;;;;5093702;28;20282;-72
2021/12/14 09:55:41;;;;;;;24.50;23.20;;;;;;;;;;5093747;28;20217;-78
2021/12/14 09:58:10;;;;;;;23.87;22.67;;;;;;;;;;5093459;28;20280;-75
2021/12/14 10:00:39;;;;;;;21.60;20.50;;;;;;;;;;5093386;28;20194;-75
2021/12/14 10:03:06;;;;;;;23.03;21.83;;;;;;;;;;5093006;28;20626;-74
2021/12/14 10:05:34;;;;;;;23.50;22.30;;;;;;;;;;5092909;28;20225;-80
2021/12/14 10:08:01;;;;;;;25.30;24.00;;;;;;;;;;5093252;28;20194;-73
2021/12/14 10:10:36;;;;;;;24.33;23.03;;;;;;;;;;5093148;28;20220;-72
2021/12/14 10:13:03;;;;;;;23.60;22.30;;;;;;;;;;5092937;28;20228;-73
2021/12/14 10:15:32;;;;;;;25.23;23.83;;;;;;;;;;5093111;28;20204;-76
2021/12/14 10:18:01;;;;;;;30.37;28.77;;;;;;;;;;5093385;28;20299;-80
2021/12/14 10:20:29;;;;;;;34.27;32.47;;;;;;;;;;5092627;28;20201;-76
2021/12/14 10:22:56;;;;;;;25.97;24.53;;;;;;;;;;5093002;28;20648;-77
2021/12/14 10:25:24;;;;;;;25.90;24.60;;;;;;;;;;5092564;28;20671;-79
2021/12/14 10:27:53;;;;;;;25.33;24.03;;;;;;;;;;5092563;28;20229;-73
2021/12/14 10:30:21;;;;;;;27.20;25.53;;;;;;;;;;5092737;28;20237;-74
2021/12/14 10:32:48;;;;;;;22.87;21.60;;;;;;;;;;5092837;28;20548;-74
2021/12/14 10:35:21;;;;;;;24.97;23.60;;;;;;;;;;5092498;28;20256;-79
2021/12/14 10:37:55;;;;;;;24.97;23.67;;;;;;;;;;5091858;28;20182;-78
2021/12/14 10:43:18;;;;;;;25.13;23.73;;;;;;;;;;5092479;28;20181;-76
2021/12/14 10:45:48;;;;;;;21.73;20.67;;;;;;;;;;5092347;28;20218;-79
2021/12/14 10:48:15;;;;;;;24.30;22.90;;;;;;;;;;5092589;28;20581;-73
2021/12/14 10:50:42;;;;;;;24.30;23.10;;;;;;;;;;5092585;28;20190;-74
2021/12/14 10:53:10;;;;;;;25.40;24.10;;;;;;;;;;5092545;28;20585;-73
2021/12/14 10:55:38;;;;;;;23.13;22.03;;;;;;;;;;5092741;28;20243;-78
2021/12/14 10:58:05;;;;;;;24.30;23.10;;;;;;;;;;5092127;28;20255;-76
2021/12/14 11:00:36;;;;;;;26.63;25.30;;;;;;;;;;5092154;28;20190;-81
2021/12/14 11:03:07;;;;;;;24.03;22.80;;;;;;;;;;5092483;28;20190;-77
2021/12/14 11:05:34;;;;;;;24.37;23.17;;;;;;;;;;5092391;28;20220;-73
2021/12/14 11:08:02;;;;;;;24.80;23.60;;;;;;;;;;5092409;28;20221;-78
2021/12/14 11:10:30;;;;;;;23.70;22.60;;;;;;;;;;5092610;28;20270;-74
2021/12/14 11:12:59;;;;;;;23.97;22.77;;;;;;;;;;5092369;28;20190;-76
2021/12/14 11:15:27;;;;;;;23.17;22.07;;;;;;;;;;5092256;28;20194;-74
2021/12/14 11:18:08;;;;;;;23.80;22.60;;;;;;;;;;5092290;28;20197;-74
2021/12/14 11:20:36;;;;;;;23.37;22.07;;;;;;;;;;5092277;28;20318;-73
2021/12/14 11:23:05;;;;;;;21.00;20.00;;;;;;;;;;5092280;28;20227;-81
2021/12/14 11:25:32;;;;;;;23.63;22.10;;;;;;;;;;5091808;28;20222;-76
2021/12/14 11:28:01;;;;;;;36.37;34.50;;;;;;;;;;5091914;28;20655;-73
2021/12/14 11:30:30;;;;;;;34.90;33.10;;;;;;;;;;5091786;28;20714;-82
2021/12/14 11:33:06;;;;;;;36.50;34.60;;;;;;;;;;5092106;28;20277;-74
2021/12/14 11:35:34;;;;;;;40.30;38.20;;;;;;;;;;5091851;28;20221;-75
2021/12/14 11:38:02;;;;;;;40.47;38.27;;;;;;;;;;5092108;28;20597;-73
2021/12/14 11:40:30;;;;;;;38.70;36.50;;;;;;;;;;5091764;28;20198;-75
2021/12/14 11:43:09;;;;;;;36.33;34.23;;;;;;;;;;5092018;28;20243;-74
2021/12/14 11:45:37;;;;;;;31.53;29.83;;;;;;;;;;5091700;28;20232;-74
2021/12/14 11:48:05;;;;;;;36.20;34.30;;;;;;;;;;5091691;28;20194;-73
2021/12/14 11:50:35;;;;;;;35.97;34.07;;;;;;;;;;5095605;28;20190;-73
2021/12/14 11:53:03;;;;;;;36.23;34.23;;;;;;;;;;5095787;28;20251;-73
2021/12/14 11:55:33;;;;;;;35.73;33.83;;;;;;;;;;5095772;28;20232;-76
2021/12/14 11:58:09;;;;;;;34.73;32.53;;;;;;;;;;5095485;28;20713;-75
2021/12/14 12:00:36;;;;;;;28.23;26.50;;;;;;;;;;5095724;28;20266;-80
2021/12/14 12:06:02;;;;;;;26.07;24.57;;;;;;;;;;5110754;27;20538;-75
2021/12/14 12:11:18;;;;;;;31.97;30.13;;;;;;;;;;5075498;28;20231;-74
2021/12/14 12:13:45;;;;;;;29.90;28.20;;;;;;;;;;5110104;28;20224;-77
2021/12/14 12:16:13;;;;;;;33.50;31.63;;;;;;;;;;5109745;28;20239;-75
2021/12/14 12:18:40;;;;;;;39.30;36.83;;;;;;;;;;5110065;28;20246;-78
2021/12/14 12:21:09;;;;;;;29.30;27.80;;;;;;;;;;5109784;28;20283;-74
2021/12/14 12:23:35;;;;;;;29.70;28.03;;;;;;;;;;5109958;28;20272;-79
2021/12/14 12:26:09;;;;;;;29.97;28.27;;;;;;;;;;5109562;28;20201;-74
2021/12/14 12:28:37;;;;;;;25.97;24.67;;;;;;;;;;5109939;28;20204;-83
2021/12/14 12:31:07;;;;;;;26.13;24.83;;;;;;;;;;5109484;28;20194;-82
2021/12/14 12:33:35;;;;;;;26.37;24.97;;;;;;;;;;5109779;28;20280;-78
2021/12/14 12:36:06;;;;;;;32.77;30.77;;;;;;;;;;5109646;28;20193;-79
2021/12/14 12:38:50;;;;;;;38.80;36.53;;;;;;;;;;5109395;28;20219;-76
2021/12/14 12:41:26;;;;;;;33.20;31.20;;;;;;;;;;5109329;28;20185;-74
2021/12/14 12:43:54;;;;;;;34.87;33.07;;;;;;;;;;5109531;28;20181;-73
2021/12/14 12:46:22;;;;;;;34.07;32.30;;;;;;;;;;5109151;28;20232;-73
2021/12/14 12:48:55;;;;;;;33.40;31.57;;;;;;;;;;5109416;28;20201;-74
2021/12/14 12:51:55;;;;;;;30.80;29.10;;;;;;;;;;5109428;28;20308;-73
2021/12/14 12:54:31;;;;;;;30.47;28.77;;;;;;;;;;5066406;28;20256;-74
2021/12/14 12:57:29;;;;;;;33.10;31.00;;;;;;;;;;5066399;28;20187;-74
2021/12/14 12:59:59;;;;;;;30.43;28.70;;;;;;;;;;5033568;28;20195;-75
2021/12/14 13:02:27;;;;;;;28.17;26.57;;;;;;;;;;5066307;28;20241;-74
2021/12/14 13:04:55;;;;;;;30.83;28.87;;;;;;;;;;5065837;28;20238;-73
2021/12/14 13:07:33;;;;;;;29.20;27.70;;;;;;;;;;5066326;28;20297;-75
2021/12/14 13:10:09;;;;;;;30.13;28.63;;;;;;;;;;5066839;28;20281;-73
2021/12/14 13:12:39;;;;;;;27.70;26.37;;;;;;;;;;5066193;28;20718;-74
2021/12/14 13:15:27;;;;;;;25.50;24.30;;;;;;;;;;5065171;28;20190;-79
2021/12/14 13:18:09;;;;;;;30.23;28.73;;;;;;;;;;5052686;28;20183;-77
2021/12/14 13:20:36;;;;;;;30.43;28.83;;;;;;;;;;5052039;28;20214;-73
2021/12/14 13:23:02;;;;;;;31.27;29.67;;;;;;;;;;5052634;28;20195;-73
2021/12/14 13:25:33;;;;;;;32.00;30.40;;;;;;;;;;5077186;28;20324;-74
2021/12/14 13:27:59;;;;;;;31.53;29.80;;;;;;;;;;5094807;28;20269;-79
2021/12/14 13:30:28;;;;;;;30.13;28.63;;;;;;;;;;5095046;28;20193;-78
2021/12/14 13:32:55;;;;;;;26.10;24.80;;;;;;;;;;5095072;28;20662;-74
2021/12/14 13:35:23;;;;;;;34.83;32.83;;;;;;;;;;5094940;28;20227;-83
2021/12/14 13:37:51;;;;;;;28.67;26.80;;;;;;;;;;5094684;28;20240;-76
2021/12/14 13:40:22;;;;;;;31.30;29.50;;;;;;;;;;5094871;28;20277;-76
2021/12/14 13:42:52;;;;;;;28.07;26.47;;;;;;;;;;5094898;28;20236;-78
2021/12/14 13:45:21;;;;;;;22.30;21.20;;;;;;;;;;5094728;28;20275;-75
2021/12/14 13:47:50;;;;;;;22.97;21.77;;;;;;;;;;5094451;28;20284;-73
2021/12/14 13:50:18;;;;;;;22.23;21.13;;;;;;;;;;5094648;28;20259;-75
2021/12/14 13:52:45;;;;;;;22.67;21.47;;;;;;;;;;5094356;28;20201;-77
2021/12/14 13:55:20;;;;;;;22.23;21.13;;;;;;;;;;5094298;28;20247;-75
2021/12/14 13:57:48;;;;;;;21.90;20.90;;;;;;;;;;5094645;28;20268;-77
2021/12/14 14:00:18;;;;;;;22.57;20.93;;;;;;;;;;5094223;28;20282;-80
2021/12/14 14:02:45;;;;;;;21.83;20.83;;;;;;;;;;5094947;28;20237;-77
2021/12/14 14:05:13;;;;;;;21.93;20.87;;;;;;;;;;5093830;28;20230;-78
2021/12/14 14:07:40;;;;;;;26.27;23.83;;;;;;;;;;5093992;28;20237;-76
2021/12/14 14:10:07;;;;;;;23.20;22.10;;;;;;;;;;5093984;28;20190;-75
2021/12/14 14:12:44;;;;;;;23.50;22.30;;;;;;;;;;5094277;28;20198;-76
2021/12/14 14:15:14;;;;;;;23.07;21.87;;;;;;;;;;5093991;28;20186;-77
2021/12/14 14:17:47;;;;;;;22.73;21.63;;;;;;;;;;5093864;28;20193;-77
2021/12/14 14:20:18;;;;;;;21.37;20.27;;;;;;;;;;5093829;28;20281;-75
2021/12/14 14:22:45;;;;;;;22.10;21.00;;;;;;;;;;5093769;28;20660;-75
2021/12/14 14:25:13;;;;;;;22.13;21.03;;;;;;;;;;5093947;28;20699;-75
2021/12/14 14:27:43;;;;;;;23.13;22.03;;;;;;;;;;5092987;28;20229;-76
2021/12/14 14:30:25;;;;;;;25.53;24.33;;;;;;;;;;5093916;28;20201;-75
2021/12/14 14:32:58;;;;;;;26.57;25.27;;;;;;;;;;5093499;28;20193;-75
2021/12/14 14:35:38;;;;;;;31.23;29.53;;;;;;;;;;5093932;28;20186;-76
2021/12/14 14:38:20;;;;;;;28.33;26.83;;;;;;;;;;5093786;28;20186;-78
2021/12/14 14:40:47;;;;;;;27.63;26.13;;;;;;;;;;5093414;28;20182;-75
2021/12/14 14:43:13;;;;;;;29.40;27.73;;;;;;;;;;5093364;28;20254;-76
2021/12/14 14:45:43;;;;;;;32.23;30.60;;;;;;;;;;5093480;28;20306;-75
2021/12/14 14:48:17;;;;;;;29.03;27.63;;;;;;;;;;5093216;28;20229;-77
2021/12/14 14:50:45;;;;;;;28.73;27.37;;;;;;;;;;5093595;28;20239;-75
2021/12/14 14:53:15;;;;;;;26.80;25.50;;;;;;;;;;5093185;28;20691;-76
2021/12/14 14:55:45;;;;;;;25.90;24.70;;;;;;;;;;5093468;28;20194;-75
2021/12/14 14:58:13;;;;;;;26.37;25.13;;;;;;;;;;5093132;28;20723;-75
2021/12/14 15:01:01;;;;;;;25.97;24.67;;;;;;;;;;5093245;28;20194;-76